Time;durP1;ratioP1;P1;durP2;ratioP2;P2;SDS_P1;SDS_P2;PMS_P1;PMS_P2;Temp;Humidity;BMP_temperature;BMP_pressure;BME280_temperature;BME280_humidity;BME280_pressure;Samples;Min_cycle;Max_cycle;Signal;HPM_P1;HPM_P2
2024/04/18 00:08:00;;;;;;;11.97;7.80;;;3.60;99.90;;;;;;5925002;23;20875;-86
2024/04/18 01:18:00;;;;;;;8.87;6.20;;;2.60;99.90;;;;;;5999946;23;20550;-83
2024/04/18 01:42:51;;;;;;;8.43;6.93;;;2.60;99.90;;;;;;5816054;23;20581;-84
2024/04/18 02:03:37;;;;;;;10.77;6.87;;;2.50;99.90;;;;;;5713230;24;20192;-85
2024/04/18 02:33:37;;;;;;;8.10;6.07;;;2.20;99.90;;;;;;5497664;24;20456;-85
2024/04/18 04:10:35;;;;;;;11.20;7.57;;;2.30;99.90;;;;;;5742114;24;20212;-83
2024/04/18 04:40:44;;;;;;;9.63;7.60;;;2.80;99.90;;;;;;5958389;23;20180;-84
2024/04/18 05:06:19;;;;;;;8.17;6.37;;;3.70;99.90;;;;;;5829000;24;20367;-82
2024/04/18 05:31:08;;;;;;;9.73;8.70;;;4.30;99.90;;;;;;5694960;24;20247;-84
2024/04/18 07:18:06;;;;;;;11.13;9.53;;;6.60;98.00;;;;;;5645496;24;20179;-81
2024/04/18 07:43:27;;;;;;;6.87;6.27;;;6.50;97.80;;;;;;5774699;24;20860;-83
2024/04/18 08:13:54;;;;;;;8.73;7.43;;;7.70;91.70;;;;;;5935457;23;20675;-84
2024/04/18 08:39:09;;;;;;;6.20;5.60;;;7.00;92.40;;;;;;5872682;23;20461;-83
2024/04/18 08:54:36;;;;;;;6.57;6.03;;;7.20;94.00;;;;;;5833116;23;20633;-83
2024/04/18 09:35:10;;;;;;;4.03;3.63;;;8.10;85.10;;;;;;5885919;23;20247;-84
2024/04/18 10:05:38;;;;;;;4.47;3.87;;;10.20;77.40;;;;;;5761846;24;20668;-84
2024/04/18 10:30:23;;;;;;;5.03;4.60;;;9.50;77.70;;;;;;5675954;24;20618;-83
2024/04/18 10:51:10;;;;;;;7.60;5.20;;;6.60;99.90;;;;;;5803394;24;20237;-85
2024/04/18 11:26:50;;;;;;;4.80;4.40;;;8.20;95.70;;;;;;5766879;23;20525;-84
2024/04/18 11:57:16;;;;;;;4.70;4.27;;;9.00;92.40;;;;;;5766461;23;20250;-85
2024/04/18 12:27:26;;;;;;;3.70;3.40;;;9.10;89.10;;;;;;5727290;23;20228;-81
2024/04/18 12:52:56;;;;;;;3.93;3.53;;;8.90;93.60;;;;;;5759739;23;20214;-82
2024/04/18 13:33:34;;;;;;;2.87;2.63;;;9.70;79.70;;;;;;5873457;23;20579;-85
2024/04/18 14:09:01;;;;;;;3.90;1.90;;;9.00;78.60;;;;;;5920380;23;20162;-81
2024/04/18 14:29:28;;;;;;;1.97;1.70;;;10.60;74.10;;;;;;5869654;23;20188;-83
2024/04/18 14:49:41;;;;;;;2.00;1.90;;;10.80;77.80;;;;;;5895288;23;20152;-85
2024/04/18 15:14:50;;;;;;;2.87;2.60;;;9.80;75.10;;;;;;5957168;23;20210;-85
2024/04/18 15:50:36;;;;;;;7.90;3.73;;;8.30;84.50;;;;;;5894130;23;20232;-83
2024/04/18 16:15:30;;;;;;;3.80;3.50;;;7.70;87.30;;;;;;5763562;24;20639;-86
2024/04/18 16:51:19;;;;;;;5.27;4.17;;;7.00;88.80;;;;;;5988257;23;20280;-87
2024/04/18 17:11:45;;;;;;;4.50;3.93;;;6.50;92.40;;;;;;5958321;23;20220;-83
2024/04/18 17:42:10;;;;;;;4.50;4.10;;;6.60;92.30;;;;;;5950632;23;20195;-84
2024/04/18 18:02:12;;;;;;;6.23;4.50;;;6.60;92.90;;;;;;5813815;23;20190;-82
2024/04/18 19:08:07;;;;;;;9.33;5.93;;;6.30;95.40;;;;;;5787394;24;20273;-84
2024/04/18 20:04:57;;;;;;;7.43;5.93;;;6.20;93.30;;;;;;5829993;23;20188;-83
2024/04/18 20:25:23;;;;;;;6.30;4.53;;;5.80;92.30;;;;;;5703845;24;20484;-84
2024/04/18 21:26:14;;;;;;;6.80;5.40;;;4.90;97.90;;;;;;5758542;24;20559;-83
2024/04/18 21:52:03;;;;;;;7.37;6.07;;;4.50;99.90;;;;;;5956276;23;20527;-84
2024/04/18 21:56:13;;;;;;;7.53;5.40;;;4.50;99.90;;;;;;5817221;23;21269;-86
2024/04/18 22:12:09;;;;;;;7.47;5.43;;;4.10;99.90;;;;;;5743228;24;20190;-86
2024/04/18 23:17:51;;;;;;;7.90;5.53;;;2.90;99.90;;;;;;5737377;24;20621;-85
2024/04/18 23:37:43;;;;;;;6.30;4.90;;;2.70;99.90;;;;;;5607072;24;20827;-83
2024/04/18 23:58:39;;;;;;;7.83;5.93;;;2.70;99.90;;;;;;5679639;24;20387;-83
